KISO/ISO METAR and TAF weather

Enter ICAO airport designator
Station Type Date Time Source
KISO METAR 2020/01/27 10:55 UTC NOAA

KISO 271055Z AUTO 00000KT 10SM CLR 00/00 A2990 RMK AO2 T00021005


Station Type Date Time Source
KISO Decoded METAR 2020/01/27 10:55 UTC NOAA

Kinston, Kinston Regional Jetport at Stallings Field, NC, United States (KISO) 35-20N 077-37W
Jan 27, 2020 - 05:55 AM EST / 2020.01.27 1055 UTC
Wind: Calm:0
Visibility: 10 mile(s):0
Sky conditions: clear
Temperature: 32.4 F (0.2 C)
Dew Point: 31.1 F (-0.5 C)
Relative Humidity: 95%
Pressure (altimeter): 29.9 in. Hg (1012 hPa)
ob: KISO 271055Z AUTO 00000KT 10SM CLR 00/00 A2990 RMK AO2 T00021005
cycle: 11

Station Type Date Time Source
KISO TAF 2020/01/27 06:33 UTC NOAA

TAF KISO 270531Z 2706/2806 00000KT P6SM SCT250
FM271200 24004KT P6SM BKN090
FM272000 27007KT P6SM BKN045
FM272300 29004KT P6SM VCSH SCT025 BKN045
AMD LTD TO CLD VIS AND WIND

Example: see airport list